createdAt,value
2023-02-03T00:00:54.734Z,100.00
2023-02-03T00:05:14.627Z,100.00
2023-02-03T00:09:20.904Z,100.00
2023-02-03T00:13:28.403Z,100.00
2023-02-03T00:17:45.745Z,100.00
2023-02-03T00:22:03.378Z,100.00
2023-02-03T00:26:17.436Z,100.00
2023-02-03T00:30:43.268Z,100.00
2023-02-03T00:35:03.082Z,100.00
2023-02-03T00:39:06.876Z,100.00
2023-02-03T00:43:10.182Z,100.00
2023-02-03T00:47:16.967Z,100.00
2023-02-03T00:51:39.928Z,100.00
2023-02-03T00:56:22.879Z,100.00
2023-02-03T01:00:40.201Z,100.00
2023-02-03T01:04:50.878Z,100.00
2023-02-03T01:08:56.330Z,100.00
2023-02-03T01:13:17.453Z,100.00
2023-02-03T01:17:28.336Z,100.00
2023-02-03T01:21:32.151Z,100.00
2023-02-03T01:25:47.536Z,100.00
2023-02-03T01:29:51.146Z,100.00
2023-02-03T01:38:32.832Z,100.00
2023-02-03T01:42:49.618Z,100.00
2023-02-03T01:47:29.286Z,100.00
2023-02-03T01:51:48.964Z,100.00
2023-02-03T02:00:43.682Z,100.00
2023-02-03T02:05:08.898Z,100.00
2023-02-03T02:09:13.688Z,100.00
2023-02-03T02:13:25.032Z,100.00
2023-02-03T02:18:03.791Z,100.00
2023-02-03T02:22:20.793Z,100.00
2023-02-03T02:26:54.405Z,100.00
2023-02-03T02:31:18.610Z,100.00
2023-02-03T02:35:40.644Z,99.75
2023-02-03T02:40:11.289Z,99.62
2023-02-03T02:44:38.965Z,99.13
2023-02-03T02:48:52.413Z,98.93
2023-02-03T02:53:15.268Z,98.84
2023-02-03T02:57:41.195Z,99.42
2023-02-03T03:01:51.737Z,99.53
2023-02-03T03:06:35.428Z,99.63
2023-02-03T03:10:44.175Z,99.83
2023-02-03T03:15:03.644Z,99.77
2023-02-03T03:19:26.510Z,100.00
2023-02-03T03:28:54.101Z,100.00
2023-02-03T03:32:59.057Z,100.00
2023-02-03T03:37:06.254Z,100.00
2023-02-03T03:41:23.281Z,100.00
2023-02-03T03:45:35.740Z,100.00
2023-02-03T03:49:49.653Z,100.00
2023-02-03T03:54:11.913Z,100.00
2023-02-03T03:58:28.223Z,100.00
2023-02-03T04:07:48.106Z,100.00
2023-02-03T04:12:08.440Z,100.00
2023-02-03T04:16:17.213Z,100.00
2023-02-03T04:20:38.291Z,100.00
2023-02-03T04:25:01.771Z,100.00
2023-02-03T04:29:32.931Z,100.00
2023-02-03T04:33:48.741Z,100.00
2023-02-03T04:38:11.096Z,100.00
2023-02-03T04:42:18.476Z,100.00
2023-02-03T04:46:23.027Z,100.00
2023-02-03T04:50:27.674Z,100.00
2023-02-03T04:54:42.111Z,100.00
2023-02-03T04:58:50.765Z,100.00
2023-02-03T05:02:56.661Z,100.00
2023-02-03T05:07:17.918Z,100.00
2023-02-03T05:11:26.046Z,99.95
2023-02-03T05:15:28.539Z,100.00
2023-02-03T05:19:29.997Z,100.00
2023-02-03T05:28:15.077Z,99.56
2023-02-03T05:32:21.123Z,99.79
2023-02-03T05:36:24.175Z,100.00
2023-02-03T05:40:42.226Z,100.00
2023-02-03T05:44:50.853Z,100.00
2023-02-03T05:49:03.614Z,100.00
2023-02-03T05:53:12.522Z,100.00
2023-02-03T05:57:22.782Z,100.00
2023-02-03T06:01:27.927Z,100.00
2023-02-03T06:05:45.988Z,100.00
2023-02-03T06:09:58.397Z,100.00
2023-02-03T06:14:04.261Z,100.00
2023-02-03T06:18:21.393Z,100.00
2023-02-03T06:22:22.860Z,100.00
2023-02-03T06:26:28.832Z,100.00
2023-02-03T06:30:34.135Z,100.00
2023-02-03T06:34:53.341Z,100.00
2023-02-03T06:39:05.309Z,100.00
2023-02-03T06:43:37.797Z,100.00
2023-02-03T06:47:45.796Z,100.00
2023-02-03T06:51:56.785Z,100.00
2023-02-03T06:56:29.523Z,100.00
2023-02-03T07:00:46.492Z,100.00
2023-02-03T07:05:06.561Z,100.00
2023-02-03T07:09:11.205Z,100.00
2023-02-03T07:13:21.576Z,100.00
2023-02-03T07:17:37.316Z,100.00
2023-02-03T07:21:45.480Z,100.00
2023-02-03T07:25:53.698Z,100.00
2023-02-03T07:29:58.130Z,100.00
2023-02-03T07:34:06.654Z,100.00
2023-02-03T07:39:21.783Z,100.00
2023-02-03T07:43:01.051Z,99.78
2023-02-03T07:47:12.676Z,98.01
2023-02-03T07:51:41.791Z,98.25
2023-02-03T07:55:50.937Z,97.79
2023-02-03T08:00:13.184Z,96.32
2023-02-03T08:04:41.524Z,95.30
2023-02-03T08:08:59.314Z,94.80
2023-02-03T08:13:03.868Z,94.72
2023-02-03T08:17:19.646Z,94.96
2023-02-03T08:21:25.805Z,94.52
2023-02-03T08:25:30.045Z,94.30
2023-02-03T08:29:37.751Z,94.20
2023-02-03T08:34:25.746Z,93.26
2023-02-03T08:38:56.396Z,92.01
2023-02-03T08:43:01.501Z,90.97
2023-02-03T08:47:17.868Z,90.87
2023-02-03T08:51:33.242Z,89.94
2023-02-03T08:55:35.583Z,89.07
2023-02-03T08:59:47.273Z,88.28
2023-02-03T09:03:53.646Z,87.71
2023-02-03T09:08:02.085Z,87.25
2023-02-03T09:12:06.717Z,86.51
2023-02-03T09:16:11.265Z,86.91
2023-02-03T09:20:15.635Z,86.50
2023-02-03T09:24:18.859Z,85.79
2023-02-03T09:28:22.400Z,86.23
2023-02-03T09:32:23.850Z,85.47
2023-02-03T09:36:26.028Z,85.51
2023-02-03T09:40:32.884Z,85.94
2023-02-03T09:44:43.769Z,86.24
2023-02-03T09:48:51.091Z,85.67
2023-02-03T09:52:57.059Z,85.38
2023-02-03T09:57:09.941Z,86.29
2023-02-03T10:01:16.069Z,86.57
2023-02-03T10:05:32.453Z,88.52
2023-02-03T10:09:46.226Z,88.49
2023-02-03T10:14:04.387Z,88.28
2023-02-03T10:18:09.729Z,86.51
2023-02-03T10:22:27.285Z,85.90
2023-02-03T10:26:34.495Z,85.27
2023-02-03T10:30:46.032Z,84.64
2023-02-03T10:34:58.266Z,82.23
2023-02-03T10:39:06.855Z,81.36
2023-02-03T10:47:55.286Z,81.27
2023-02-03T10:52:08.009Z,82.77
2023-02-03T10:56:19.401Z,84.20
2023-02-03T11:00:30.766Z,82.35
2023-02-03T11:04:42.908Z,79.62
2023-02-03T11:08:56.224Z,79.56
2023-02-03T11:13:26.685Z,76.38
2023-02-03T11:17:47.112Z,73.84
2023-02-03T11:22:05.463Z,69.94
2023-02-03T11:26:15.314Z,66.44
2023-02-03T11:30:23.318Z,63.35
2023-02-03T11:34:29.501Z,61.99
2023-02-03T11:38:44.576Z,59.65
2023-02-03T11:42:54.232Z,59.95
2023-02-03T11:47:04.395Z,59.24
2023-02-03T11:51:25.516Z,58.72
2023-02-03T11:55:55.977Z,58.00
2023-02-03T12:00:31.708Z,57.13
2023-02-03T12:05:00.827Z,58.21
2023-02-03T12:09:23.187Z,55.76
2023-02-03T12:13:41.948Z,54.20
2023-02-03T12:18:00.306Z,55.68
2023-02-03T12:22:21.430Z,56.31
2023-02-03T12:26:28.891Z,55.19
2023-02-03T12:30:44.165Z,55.50
2023-02-03T12:34:52.333Z,56.69
2023-02-03T12:39:28.819Z,54.39
2023-02-03T12:43:49.179Z,55.04
2023-02-03T12:48:18.930Z,55.85
2023-02-03T12:52:48.214Z,58.42
2023-02-03T12:56:56.838Z,57.71
2023-02-03T13:01:53.427Z,58.81
2023-02-03T13:07:04.459Z,60.23
2023-02-03T13:11:40.093Z,60.96
2023-02-03T13:15:44.902Z,60.13
2023-02-03T13:19:55.611Z,60.72
2023-02-03T13:23:59.067Z,61.15
2023-02-03T13:28:13.211Z,61.98
2023-02-03T13:32:31.612Z,63.87
2023-02-03T13:37:01.263Z,65.10
2023-02-03T13:41:10.302Z,65.53
2023-02-03T13:45:23.020Z,65.32
2023-02-03T13:49:48.856Z,65.36
2023-02-03T13:54:22.373Z,64.64
2023-02-03T13:58:40.114Z,63.85
2023-02-03T14:02:56.123Z,64.55
2023-02-03T14:07:04.220Z,66.06
2023-02-03T14:11:41.400Z,57.98
2023-02-03T14:15:46.902Z,53.07
2023-02-03T14:19:59.139Z,57.39
2023-02-03T14:24:09.778Z,61.03
2023-02-03T14:28:23.343Z,63.19
2023-02-03T14:32:58.163Z,64.39
2023-02-03T14:37:11.502Z,65.67
2023-02-03T14:41:12.756Z,66.86
2023-02-03T14:45:47.717Z,66.87
2023-02-03T14:50:21.831Z,68.26
2023-02-03T14:54:39.880Z,69.13
2023-02-03T14:58:52.929Z,69.45
2023-02-03T15:03:20.282Z,71.93
2023-02-03T15:07:44.776Z,74.99
2023-02-03T15:11:48.805Z,75.77
2023-02-03T15:15:53.156Z,74.45
2023-02-03T15:19:56.235Z,73.76
2023-02-03T15:23:57.495Z,74.20
2023-02-03T15:28:23.238Z,74.84
2023-02-03T15:32:31.854Z,74.78
2023-02-03T15:36:44.672Z,74.75
2023-02-03T15:40:53.215Z,74.78
2023-02-03T15:45:03.787Z,74.30
2023-02-03T15:49:18.206Z,74.29
2023-02-03T15:53:34.426Z,73.84
2023-02-03T15:57:42.976Z,73.87
2023-02-03T16:01:46.122Z,74.20
2023-02-03T16:05:49.470Z,74.79
2023-02-03T16:09:59.460Z,74.76
2023-02-03T16:14:05.512Z,74.85
2023-02-03T16:18:24.402Z,75.09
2023-02-03T16:22:32.237Z,75.59
2023-02-03T16:26:48.416Z,75.40
2023-02-03T16:31:16.271Z,75.71
2023-02-03T16:35:41.496Z,75.61
2023-02-03T16:39:59.343Z,75.35
2023-02-03T16:44:16.367Z,75.22
2023-02-03T16:48:33.706Z,76.15
2023-02-03T16:52:38.135Z,76.19
2023-02-03T16:56:42.146Z,75.90
2023-02-03T17:00:46.737Z,75.58
2023-02-03T17:04:54.400Z,75.01
2023-02-03T17:09:07.625Z,74.62
2023-02-03T17:13:10.417Z,73.77
2023-02-03T17:17:17.619Z,73.01
2023-02-03T17:21:26.046Z,72.82
2023-02-03T17:25:36.929Z,72.47
2023-02-03T17:29:56.101Z,72.96
2023-02-03T17:34:16.521Z,72.82
2023-02-03T17:38:21.054Z,72.07
2023-02-03T17:55:50.685Z,71.63
2023-02-03T18:00:00.500Z,71.77
2023-02-03T18:04:06.854Z,71.61
2023-02-03T18:08:16.200Z,71.20
2023-02-03T18:12:20.778Z,70.87
2023-02-03T18:16:32.178Z,70.82
2023-02-03T18:20:39.426Z,71.12
2023-02-03T18:24:40.171Z,70.93
2023-02-03T18:28:48.363Z,71.33
2023-02-03T18:32:57.762Z,71.04
2023-02-03T18:37:00.008Z,70.84
2023-02-03T18:41:10.990Z,70.28
2023-02-03T18:45:15.895Z,69.76
2023-02-03T18:49:18.848Z,69.48
2023-02-03T18:53:18.975Z,68.93
2023-02-03T18:57:41.521Z,68.21
2023-02-03T19:01:44.846Z,68.04
2023-02-03T19:05:51.403Z,67.54
2023-02-03T19:09:56.806Z,67.28
2023-02-03T19:13:58.335Z,66.64
2023-02-03T19:18:02.199Z,66.46
2023-02-03T19:22:05.565Z,66.34
2023-02-03T19:26:14.420Z,65.97
2023-02-03T19:30:19.445Z,65.71
2023-02-03T19:34:21.093Z,65.91
2023-02-03T19:38:25.919Z,66.47
2023-02-03T19:42:29.558Z,65.76
2023-02-03T19:46:37.828Z,66.27
2023-02-03T19:50:40.780Z,66.11
2023-02-03T19:54:52.282Z,66.36
2023-02-03T19:58:59.275Z,66.14
2023-02-03T20:03:03.607Z,66.34
2023-02-03T20:07:10.737Z,66.56
2023-02-03T20:11:14.313Z,66.77
2023-02-03T20:15:21.821Z,66.86
2023-02-03T20:19:23.470Z,67.08
2023-02-03T20:23:31.077Z,67.29
2023-02-03T20:27:38.814Z,67.78
2023-02-03T20:31:43.628Z,68.02
2023-02-03T20:35:45.499Z,68.39
2023-02-03T20:39:49.380Z,68.47
2023-02-03T20:43:59.473Z,68.62
2023-02-03T20:48:04.722Z,68.48
2023-02-03T20:52:25.386Z,69.06
2023-02-03T20:56:26.802Z,68.96
2023-02-03T21:00:41.647Z,68.84
2023-02-03T21:05:01.324Z,68.67
2023-02-03T21:09:05.345Z,69.04
2023-02-03T21:13:26.393Z,68.94
2023-02-03T21:17:31.345Z,68.19
2023-02-03T21:21:38.037Z,68.10
2023-02-03T21:25:44.485Z,67.62
2023-02-03T21:30:09.941Z,68.40
2023-02-03T21:34:42.925Z,67.56
2023-02-03T21:38:46.413Z,68.04
2023-02-03T21:42:49.040Z,67.93
2023-02-03T21:46:52.508Z,67.86
2023-02-03T21:50:58.206Z,67.78
2023-02-03T21:55:28.232Z,67.89
2023-02-03T21:59:33.656Z,67.73
2023-02-03T22:03:46.309Z,67.45
2023-02-03T22:07:50.745Z,67.65
2023-02-03T22:12:01.429Z,67.84
2023-02-03T22:16:05.952Z,67.83
2023-02-03T22:20:14.954Z,67.79
2023-02-03T22:24:21.774Z,67.89
2023-02-03T22:28:24.168Z,67.73
2023-02-03T22:32:28.844Z,68.41
2023-02-03T22:36:38.958Z,67.94
2023-02-03T22:40:46.359Z,68.21
2023-02-03T22:44:50.886Z,68.84
2023-02-03T22:48:52.043Z,68.71
2023-02-03T22:52:54.292Z,68.52
2023-02-03T22:57:01.215Z,68.08
2023-02-03T23:01:02.675Z,68.29
2023-02-03T23:05:05.003Z,68.03
2023-02-03T23:09:06.608Z,67.58
2023-02-03T23:13:10.334Z,67.25
2023-02-03T23:17:18.557Z,67.46
2023-02-03T23:21:20.737Z,67.63
2023-02-03T23:25:22.092Z,67.65
2023-02-03T23:29:25.816Z,67.34
2023-02-03T23:33:27.240Z,67.72
2023-02-03T23:37:26.040Z,68.79
2023-02-03T23:41:26.890Z,72.27
2023-02-03T23:45:30.505Z,75.50
2023-02-03T23:49:32.909Z,79.27
2023-02-03T23:53:37.542Z,83.06
2023-02-03T23:57:42.851Z,85.48
